地図

経路データ

SID SEASON NUMBER BASIN SUBBASIN NAME ISO_TIME NATURE LAT LON WMO_WIND WMO_PRES WMO_AGENCY TRACK_TYPE DIST2LAND LANDFALL IFLAG USA_AGENCY USA_ATCF_ID USA_LAT USA_LON USA_RECORD USA_STATUS USA_WIND USA_PRES USA_SSHS USA_R34_NE USA_R34_SE USA_R34_SW USA_R34_NW USA_R50_NE USA_R50_SE USA_R50_SW USA_R50_NW USA_R64_NE USA_R64_SE USA_R64_SW USA_R64_NW USA_POCI USA_ROCI USA_RMW USA_EYE TOKYO_LAT TOKYO_LON TOKYO_GRADE TOKYO_WIND TOKYO_PRES TOKYO_R50_DIR TOKYO_R50_LONG TOKYO_R50_SHORT TOKYO_R30_DIR TOKYO_R30_LONG TOKYO_R30_SHORT TOKYO_LAND CMA_LAT CMA_LON CMA_CAT CMA_WIND CMA_PRES HKO_LAT HKO_LON HKO_CAT HKO_WIND HKO_PRES NEWDELHI_LAT NEWDELHI_LON NEWDELHI_GRADE NEWDELHI_WIND NEWDELHI_PRES NEWDELHI_CI NEWDELHI_DP NEWDELHI_POCI REUNION_LAT REUNION_LON REUNION_TYPE REUNION_WIND REUNION_PRES REUNION_TNUM REUNION_CI REUNION_RMW REUNION_R34_NE REUNION_R34_SE REUNION_R34_SW REUNION_R34_NW REUNION_R50_NE REUNION_R50_SE REUNION_R50_SW REUNION_R50_NW REUNION_R64_NE REUNION_R64_SE REUNION_R64_SW REUNION_R64_NW BOM_LAT BOM_LON BOM_TYPE BOM_WIND BOM_PRES BOM_TNUM BOM_CI BOM_RMW BOM_R34_NE BOM_R34_SE BOM_R34_SW BOM_R34_NW BOM_R50_NE BOM_R50_SE BOM_R50_SW BOM_R50_NW BOM_R64_NE BOM_R64_SE BOM_R64_SW BOM_R64_NW BOM_ROCI BOM_POCI BOM_EYE BOM_POS_METHOD BOM_PRES_METHOD NADI_LAT NADI_LON NADI_CAT NADI_WIND NADI_PRES WELLINGTON_LAT WELLINGTON_LON WELLINGTON_WIND WELLINGTON_PRES DS824_LAT DS824_LON DS824_STAGE DS824_WIND DS824_PRES TD9636_LAT TD9636_LON TD9636_STAGE TD9636_WIND TD9636_PRES TD9635_LAT TD9635_LON TD9635_WIND TD9635_PRES TD9635_ROCI NEUMANN_LAT NEUMANN_LON NEUMANN_CLASS NEUMANN_WIND NEUMANN_PRES MLC_LAT MLC_LON MLC_CLASS MLC_WIND MLC_PRES USA_GUST BOM_GUST BOM_GUST_PER REUNION_GUST REUNION_GUST_PER USA_SEAHGT USA_SEARAD_NE USA_SEARAD_SE USA_SEARAD_SW USA_SEARAD_NW STORM_SPEED STORM_DIR
1842298N11080 1842 1 NI BB NOT_NAMED 1842-10-25 03:00:00 NR 10.9000 80.3000 main 43 0 __________O___ -1 10.9000 80.3000 7 9 266
1842298N11080 1842 1 NI BB NOT_NAMED 1842-10-25 06:00:00 NR 10.8709 79.8265 main 0 0 __________P___ -1 10.8709 79.8265 7 9 267
1842298N11080 1842 1 NI BB NOT_NAMED 1842-10-25 09:00:00 NR 10.8431 79.3524 main 0 0 __________P___ -1 10.8431 79.3524 7 9 267
1842298N11080 1842 1 NI BB NOT_NAMED 1842-10-25 12:00:00 NR 10.8188 78.8772 main 0 0 __________P___ -1 10.8188 78.8772 7 9 267
1842298N11080 1842 1 NI BB NOT_NAMED 1842-10-25 15:00:00 NR 10.8000 78.4000 main 0 0 __________O___ -1 10.8000 78.4000 7 9 268
1842298N11080 1842 1 NI AS NOT_NAMED 1842-10-25 18:00:00 NR 10.7884 77.9194 main 0 0 __________P___ -1 10.7884 77.9194 7 10 269
1842298N11080 1842 1 NI AS NOT_NAMED 1842-10-25 21:00:00 NR 10.7845 77.4299 main 0 0 __________P___ -1 10.7845 77.4299 7 10 270
1842298N11080 1842 1 NI AS NOT_NAMED 1842-10-26 00:00:00 NR 10.7884 76.9256 main 0 0 __________P___ -1 10.7884 76.9256 7 10 271
1842298N11080 1842 1 NI AS NOT_NAMED 1842-10-26 03:00:00 NR 10.8000 76.4000 main 0 0 __________O___ -1 10.8000 76.4000 7 11 271
1842298N11080 1842 1 NI AS NOT_NAMED 1842-10-26 06:00:00 NR 10.8096 75.8424 main 10 10 __________P___ -1 10.8096 75.8424 7 11 271
1842298N11080 1842 1 NI AS NOT_NAMED 1842-10-26 09:00:00 NR 10.8274 75.2649 main 65 65 __________P___ -1 10.8274 75.2649 7 11 272
1842298N11080 1842 1 NI AS NOT_NAMED 1842-10-26 12:00:00 NR 10.8565 74.6799 main 119 119 __________P___ -1 10.8565 74.6799 7 11 274
1842298N11080 1842 1 NI AS NOT_NAMED 1842-10-26 15:00:00 NR 10.9000 74.1000 main 171 171 __________O___ -1 10.9000 74.1000 7 11 275
1842298N11080 1842 1 NI AS NOT_NAMED 1842-10-26 18:00:00 NR 10.9645 73.5308 main 216 216 __________P___ -1 10.9645 73.5308 7 11 277
1842298N11080 1842 1 NI AS NOT_NAMED 1842-10-26 21:00:00 NR 11.0423 72.9702 main 264 264 __________P___ -1 11.0423 72.9702 7 11 278
1842298N11080 1842 1 NI AS NOT_NAMED 1842-10-27 00:00:00 NR 11.1239 72.4245 main 318 318 __________P___ -1 11.1239 72.4245 7 11 279
1842298N11080 1842 1 NI AS NOT_NAMED 1842-10-27 03:00:00 NR 11.2000 71.9000 main 362 362 __________O___ -1 11.2000 71.9000 7 10 277
1842298N11080 1842 1 NI AS NOT_NAMED 1842-10-27 06:00:00 NR 11.2527 71.4073 main 406 406 __________P___ -1 11.2527 71.4073 7 10 276
1842298N11080 1842 1 NI AS NOT_NAMED 1842-10-27 09:00:00 NR 11.2994 70.9348 main 456 456 __________P___ -1 11.2994 70.9348 7 9 276
1842298N11080 1842 1 NI AS NOT_NAMED 1842-10-27 12:00:00 NR 11.3464 70.4698 main 497 497 __________P___ -1 11.3464 70.4698 7 9 276
1842298N11080 1842 1 NI AS NOT_NAMED 1842-10-27 15:00:00 NR 11.4000 70.0000 main 545 545 __________O___ -1 11.4000 70.0000 7 10 277
1842298N11080 1842 1 NI AS NOT_NAMED 1842-10-27 18:00:00 NR 11.4762 69.4627 main 594 594 __________P___ -1 11.4762 69.4627 7 11 279
1842298N11080 1842 1 NI AS NOT_NAMED 1842-10-27 21:00:00 NR 11.5579 68.9253 main 655 655 __________P___ -1 11.5579 68.9253 7 10 279
1842298N11080 1842 1 NI AS NOT_NAMED 1842-10-28 00:00:00 NR 11.6356 68.4252 main 708 708 __________P___ -1 11.6356 68.4252 7 9 279
1842298N11080 1842 1 NI AS NOT_NAMED 1842-10-28 03:00:00 NR 11.7000 68.0000 main 743 743 __________O___ -1 11.7000 68.0000 7 7 278
1842298N11080 1842 1 NI AS NOT_NAMED 1842-10-28 06:00:00 NR 11.7348 67.6958 main 771 771 __________P___ -1 11.7348 67.6958 7 5 276
1842298N11080 1842 1 NI AS NOT_NAMED 1842-10-28 09:00:00 NR 11.7569 67.4673 main 784 784 __________P___ -1 11.7569 67.4673 7 4 276
1842298N11080 1842 1 NI AS NOT_NAMED 1842-10-28 12:00:00 NR 11.7756 67.2802 main 803 803 __________P___ -1 11.7756 67.2802 7 4 277
1842298N11080 1842 1 NI AS NOT_NAMED 1842-10-28 15:00:00 NR 11.8000 67.1000 main 823 823 __________O___ -1 11.8000 67.1000 7 4 280
1842298N11080 1842 1 NI AS NOT_NAMED 1842-10-28 18:00:00 NR 11.8469 66.8669 main 842 842 __________P___ -1 11.8469 66.8669 7 5 282
1842298N11080 1842 1 NI AS NOT_NAMED 1842-10-28 21:00:00 NR 11.9000 66.6351 main 867 867 __________P___ -1 11.9000 66.6351 7 5 283
1842298N11080 1842 1 NI AS NOT_NAMED 1842-10-29 00:00:00 NR 11.9531 66.4107 main 882 882 __________P___ -1 11.9531 66.4107 7 4 283
1842298N11080 1842 1 NI AS NOT_NAMED 1842-10-29 03:00:00 NR 12.0000 66.2000 main 902 902 __________O___ -1 12.0000 66.2000 7 4 282
1842298N11080 1842 1 NI AS NOT_NAMED 1842-10-29 06:00:00 NR 12.0321 66.0146 main 922 922 __________P___ -1 12.0321 66.0146 7 4 279
1842298N11080 1842 1 NI AS NOT_NAMED 1842-10-29 09:00:00 NR 12.0574 65.8424 main 937 937 __________P___ -1 12.0574 65.8424 7 3 278
1842298N11080 1842 1 NI AS NOT_NAMED 1842-10-29 12:00:00 NR 12.0790 65.6740 main 948 948 __________P___ -1 12.0790 65.6740 7 3 277
1842298N11080 1842 1 NI AS NOT_NAMED 1842-10-29 15:00:00 NR 12.1000 65.5000 main 968 968 __________O___ -1 12.1000 65.5000 7 4 277
1842298N11080 1842 1 NI AS NOT_NAMED 1842-10-29 18:00:00 NR 12.1250 65.3072 main 988 988 __________P___ -1 12.1250 65.3072 7 4 277
1842298N11080 1842 1 NI AS NOT_NAMED 1842-10-29 21:00:00 NR 12.1500 65.1075 main 1008 1003 __________P___ -1 12.1500 65.1075 7 4 277
1842298N11080 1842 1 NI AS NOT_NAMED 1842-10-30 00:00:00 NR 12.1750 64.9041 main 1023 1023 __________P___ -1 12.1750 64.9041 7 4 277
1842298N11080 1842 1 NI AS NOT_NAMED 1842-10-30 03:00:00 NR 12.2000 64.7000 main 1043 1043 __________O___ -1 12.2000 64.7000 7 4 276
1842298N11080 1842 1 NI AS NOT_NAMED 1842-10-30 06:00:00 NR 12.2168 64.5040 main 1045 1031 __________P___ -1 12.2168 64.5040 7 4 275
1842298N11080 1842 1 NI AS NOT_NAMED 1842-10-30 09:00:00 NR 12.2349 64.3074 main 1031 1008 __________P___ -1 12.2349 64.3074 7 4 276
1842298N11080 1842 1 NI AS NOT_NAMED 1842-10-30 12:00:00 NR 12.2606 64.1071 main 1008 994 __________P___ -1 12.2606 64.1071 7 4 279
1842298N11080 1842 1 NI AS NOT_NAMED 1842-10-30 15:00:00 NR 12.3000 63.9000 main 994 971 __________O___ -1 12.3000 63.9000 7 4 284
1842298N11080 1842 1 NI AS NOT_NAMED 1842-10-30 18:00:00 NR 12.3606 63.6822 main 971 957 __________P___ -1 12.3606 63.6822 7 5 287
1842298N11080 1842 1 NI AS NOT_NAMED 1842-10-30 21:00:00 NR 12.4350 63.4575 main 957 929 __________P___ -1 12.4350 63.4575 7 5 289
1842298N11080 1842 1 NI AS NOT_NAMED 1842-10-31 00:00:00 NR 12.5168 63.2291 main 929 906 __________P___ -1 12.5168 63.2291 7 5 290
1842298N11080 1842 1 NI AS NOT_NAMED 1842-10-31 03:00:00 NR 12.6000 63.0000 main 906 884 __________O___ -1 12.6000 63.0000 7 5 290
1842298N11080 1842 1 NI AS NOT_NAMED 1842-10-31 06:00:00 NR 12.6831 62.7710 main 884 863 __________P___ -1 12.6831 62.7710 7 5 290
1842298N11080 1842 1 NI AS NOT_NAMED 1842-10-31 09:00:00 NR 12.7650 62.5425 main 856 844 __________P___ -1 12.7650 62.5425 7 5 289
1842298N11080 1842 1 NI AS NOT_NAMED 1842-10-31 12:00:00 NR 12.8393 62.3178 main 844 823 __________P___ -1 12.8393 62.3178 7 5 287
1842298N11080 1842 1 NI AS NOT_NAMED 1842-10-31 15:00:00 NR 12.9000 62.1000 main 823 803 __________O___ -1 12.9000 62.1000 7 4 283
1842298N11080 1842 1 NI AS NOT_NAMED 1842-10-31 18:00:00 NR 12.9312 61.8967 main 803 782 __________P___ -1 12.9312 61.8967 7 4 277
1842298N11080 1842 1 NI AS NOT_NAMED 1842-10-31 21:00:00 NR 12.9499 61.6998 main 782 760 __________P___ -1 12.9499 61.6998 7 4 276
1842298N11080 1842 1 NI AS NOT_NAMED 1842-11-01 00:00:00 NR 12.9687 61.5030 main 760 739 __________P___ -1 12.9687 61.5030 7 4 277
1842298N11080 1842 1 NI AS NOT_NAMED 1842-11-01 03:00:00 NR 13.0000 61.3000 main 739 717 __________O___ -1 13.0000 61.3000 7 4 282
1842298N11080 1842 1 NI AS NOT_NAMED 1842-11-01 06:00:00 NR 13.0606 61.0741 main 718 696 __________P___ -1 13.0606 61.0741 7 5 287
1842298N11080 1842 1 NI AS NOT_NAMED 1842-11-01 09:00:00 NR 13.1350 60.8426 main 685 664 __________P___ -1 13.1350 60.8426 7 5 289
1842298N11080 1842 1 NI AS NOT_NAMED 1842-11-01 12:00:00 NR 13.2169 60.6147 main 664 644 __________P___ -1 13.2169 60.6147 7 5 291
1842298N11080 1842 1 NI AS NOT_NAMED 1842-11-01 15:00:00 NR 13.3000 60.4000 main 644 624 __________O___ -1 13.3000 60.4000 7 4 292
1842298N11080 1842 1 NI AS NOT_NAMED 1842-11-01 18:00:00 NR 13.3794 60.2053 main 624 602 __________P___ -1 13.3794 60.2053 7 4 293
1842298N11080 1842 1 NI AS NOT_NAMED 1842-11-01 21:00:00 NR 13.4550 60.0275 main 604 593 __________P___ -1 13.4550 60.0275 7 4 294
1842298N11080 1842 1 NI AS NOT_NAMED 1842-11-02 00:00:00 NR 13.5282 59.8610 main 593 574 __________P___ -1 13.5282 59.8610 7 4 295
1842298N11080 1842 1 NI AS NOT_NAMED 1842-11-02 03:00:00 NR 13.6000 59.7000 main 574 __________O___ -1 13.6000 59.7000 7 3 295

IBTrACS Databaseについて

本データベースは、米国NOAAが公開する1842年以降の世界の熱帯低気圧のベストトラックデータアーカイブInternational Best Track Archive for Climate Stewardship (IBTrACS)を、ウェブで閲覧しやすい形式に変換したものです。

最終更新日:2021-12-06